Time;durP1;ratioP1;P1;durP2;ratioP2;P2;SDS_P1;SDS_P2;PMS_P1;PMS_P2;Temp;Humidity;BMP_temperature;BMP_pressure;BME280_temperature;BME280_humidity;BME280_pressure;Samples;Min_cycle;Max_cycle;Signal;HPM_P1;HPM_P2
2022/07/19 00:00:10;;;;;;;20.15;9.20;;;;;;;20.39;100.00;101484.16;5050242;28;20083;-77
2022/07/19 00:02:37;;;;;;;18.00;8.35;;;;;;;20.30;100.00;101490.78;5032729;28;20030;-77
2022/07/19 00:05:04;;;;;;;16.52;8.45;;;;;;;20.24;100.00;101485.88;5046704;28;20033;-77
2022/07/19 00:07:30;;;;;;;16.15;7.75;;;;;;;20.17;100.00;101482.91;5039871;28;20060;-77
2022/07/19 00:09:55;;;;;;;15.43;7.50;;;;;;;20.26;100.00;101477.38;5050125;28;20072;-76
2022/07/19 00:12:21;;;;;;;30.88;8.40;;;;;;;20.08;100.00;101470.00;5055525;28;20542;-78
2022/07/19 00:14:46;;;;;;;32.22;9.13;;;;;;;20.06;100.00;101474.03;5037034;28;20142;-76
2022/07/19 00:17:12;;;;;;;16.40;8.77;;;;;;;19.97;100.00;101460.09;5053368;28;20048;-78
2022/07/19 00:19:38;;;;;;;17.15;9.18;;;;;;;20.07;100.00;101472.97;5054540;28;20475;-78
2022/07/19 00:22:04;;;;;;;24.90;9.70;;;;;;;20.07;100.00;101461.84;5056668;28;20074;-77
2022/07/19 00:24:29;;;;;;;19.50;9.38;;;;;;;20.01;100.00;101464.25;5034470;28;20465;-76
2022/07/19 00:26:55;;;;;;;28.30;9.35;;;;;;;20.02;100.00;101471.56;5024531;28;20033;-77
2022/07/19 00:29:20;;;;;;;28.02;9.65;;;;;;;19.99;100.00;101465.50;5054222;28;20057;-77
2022/07/19 00:31:46;;;;;;;21.90;9.32;;;;;;;19.99;100.00;101466.34;5039762;28;20538;-78
2022/07/19 00:34:11;;;;;;;19.80;9.55;;;;;;;19.82;100.00;101465.44;5050165;28;20044;-78
2022/07/19 00:36:37;;;;;;;15.35;8.77;;;;;;;19.86;100.00;101465.97;5025362;28;20087;-77
2022/07/19 00:39:03;;;;;;;23.85;9.45;;;;;;;19.85;100.00;101461.41;5004209;28;20488;-78
2022/07/19 00:41:28;;;;;;;24.30;9.68;;;;;;;19.78;100.00;101457.59;5056757;28;20051;-77
2022/07/19 00:43:55;;;;;;;19.05;8.70;;;;;;;19.72;100.00;101452.66;5024427;28;20052;-77
2022/07/19 00:46:22;;;;;;;17.52;9.20;;;;;;;19.65;100.00;101456.09;5019643;28;20057;-77
2022/07/19 00:48:49;;;;;;;25.77;9.25;;;;;;;19.58;100.00;101457.81;5042935;28;20033;-78
2022/07/19 00:51:16;;;;;;;16.17;10.10;;;;;;;19.59;100.00;101451.19;5058108;28;20129;-77
2022/07/19 00:53:43;;;;;;;16.65;9.05;;;;;;;19.61;100.00;101446.38;5035923;28;20152;-77
2022/07/19 00:56:11;;;;;;;13.55;8.95;;;;;;;19.64;100.00;101456.25;5036931;28;20068;-78
2022/07/19 00:58:38;;;;;;;14.57;8.55;;;;;;;19.52;100.00;101441.78;5039006;28;20045;-78
2022/07/19 01:01:06;;;;;;;19.05;9.55;;;;;;;19.53;100.00;101442.66;5037375;28;20385;-77
2022/07/19 01:03:34;;;;;;;13.40;8.38;;;;;;;19.58;100.00;101449.47;5040151;28;20048;-78
2022/07/19 01:06:00;;;;;;;20.00;9.02;;;;;;;19.45;100.00;101437.94;5038857;28;20032;-78
2022/07/19 01:08:26;;;;;;;17.70;9.05;;;;;;;19.40;100.00;101444.00;5052626;28;20032;-78
2022/07/19 01:10:52;;;;;;;14.35;8.85;;;;;;;19.40;100.00;101437.59;5021264;28;20140;-78
2022/07/19 01:13:17;;;;;;;16.38;9.65;;;;;;;19.41;100.00;101442.09;5016516;28;20040;-78
2022/07/19 01:15:43;;;;;;;25.80;9.95;;;;;;;19.39;100.00;101444.16;5037483;28;20045;-78
2022/07/19 01:18:09;;;;;;;20.60;9.40;;;;;;;19.45;100.00;101441.59;5055462;28;20056;-78
2022/07/19 01:20:35;;;;;;;24.05;9.07;;;;;;;19.38;100.00;101442.41;5042944;28;20056;-78
2022/07/19 01:23:00;;;;;;;21.48;9.90;;;;;;;19.40;100.00;101441.22;5043961;28;20036;-78
2022/07/19 01:25:29;;;;;;;18.67;9.98;;;;;;;19.38;100.00;101440.53;5020542;28;20063;-78
2022/07/19 01:27:55;;;;;;;22.77;9.52;;;;;;;19.40;100.00;101437.59;5060614;28;20037;-76
2022/07/19 01:30:22;;;;;;;17.10;9.57;;;;;;;19.46;100.00;101442.44;5019704;28;20168;-77
2022/07/19 01:32:49;;;;;;;24.10;9.15;;;;;;;19.47;100.00;101444.19;5046151;28;20040;-77
2022/07/19 01:35:15;;;;;;;14.10;8.98;;;;;;;19.35;100.00;101439.97;5035995;28;20479;-76
2022/07/19 01:37:41;;;;;;;15.93;9.70;;;;;;;19.29;100.00;101441.50;5052242;28;20040;-77
2022/07/19 01:40:09;;;;;;;21.77;9.40;;;;;;;19.23;100.00;101443.03;5017816;28;20350;-77
2022/07/19 01:42:35;;;;;;;24.67;10.25;;;;;;;19.20;100.00;101440.59;5036352;28;20044;-77
2022/07/19 01:45:00;;;;;;;17.92;8.80;;;;;;;19.23;100.00;101440.25;5051046;28;20034;-77
2022/07/19 01:47:26;;;;;;;18.20;8.63;;;;;;;19.25;100.00;101434.50;5049179;28;20507;-76
2022/07/19 01:49:52;;;;;;;13.40;8.10;;;;;;;19.32;100.00;101429.22;5035219;28;20033;-77
2022/07/19 01:52:18;;;;;;;13.95;8.15;;;;;;;19.23;100.00;101426.38;5052012;28;20068;-77
2022/07/19 01:54:43;;;;;;;23.20;9.52;;;;;;;19.07;100.00;101429.91;5050322;28;20048;-77
2022/07/19 01:57:09;;;;;;;14.88;9.45;;;;;;;19.14;100.00;101424.59;5046607;28;20384;-77
2022/07/19 01:59:38;;;;;;;20.38;9.63;;;;;;;19.10;100.00;101423.16;5020626;28;20083;-77
2022/07/19 02:02:04;;;;;;;17.65;8.73;;;;;;;19.08;100.00;101428.88;5018020;28;20442;-77
2022/07/19 02:04:30;;;;;;;10.55;8.30;;;;;;;18.88;100.00;101428.22;5038880;28;20037;-77
2022/07/19 02:06:56;;;;;;;14.32;8.63;;;;;;;18.80;100.00;101428.13;5034815;28;20469;-77
2022/07/19 02:09:22;;;;;;;13.88;9.15;;;;;;;18.89;100.00;101427.19;5048452;28;20048;-78
2022/07/19 02:11:47;;;;;;;16.35;8.60;;;;;;;18.87;100.00;101425.59;5053489;28;20037;-77
2022/07/19 02:14:13;;;;;;;16.13;8.45;;;;;;;18.85;100.00;101434.06;5020453;28;20106;-77
2022/07/19 02:16:39;;;;;;;18.10;9.02;;;;;;;18.75;100.00;101430.50;5034901;28;20120;-76
2022/07/19 02:19:05;;;;;;;13.80;8.77;;;;;;;18.75;100.00;101427.72;5041133;28;20045;-76
2022/07/19 02:21:32;;;;;;;15.38;7.68;;;;;;;18.69;100.00;101417.28;5036908;28;20057;-77
2022/07/19 02:23:58;;;;;;;16.05;8.02;;;;;;;18.65;100.00;101415.88;5039150;28;20062;-77
2022/07/19 02:26:23;;;;;;;16.15;8.10;;;;;;;18.51;100.00;101426.50;5038941;28;20483;-77
2022/07/19 02:28:49;;;;;;;11.45;8.00;;;;;;;18.55;100.00;101418.72;5052860;28;20496;-77
2022/07/19 02:31:15;;;;;;;11.35;8.60;;;;;;;18.50;100.00;101418.34;5053329;28;20397;-77
2022/07/19 02:33:41;;;;;;;14.18;8.68;;;;;;;18.53;100.00;101423.56;5032742;28;20096;-77
2022/07/19 02:36:07;;;;;;;12.93;8.48;;;;;;;18.47;100.00;101405.66;5031898;28;20368;-77
2022/07/19 02:38:32;;;;;;;12.45;7.90;;;;;;;18.47;100.00;101416.75;5017347;28;20053;-77
2022/07/19 02:40:58;;;;;;;15.82;7.70;;;;;;;18.42;100.00;101421.03;5050207;28;20029;-78
2022/07/19 02:43:24;;;;;;;17.05;7.85;;;;;;;18.43;100.00;101411.66;5043608;28;20037;-78
2022/07/19 02:45:50;;;;;;;23.27;8.82;;;;;;;18.32;100.00;101415.56;5032549;28;20046;-77
2022/07/19 02:48:15;;;;;;;10.82;8.40;;;;;;;18.30;100.00;101412.97;4999866;28;20488;-77
2022/07/19 02:50:42;;;;;;;15.85;8.60;;;;;;;18.24;100.00;101415.50;5049444;28;20041;-78
2022/07/19 02:53:07;;;;;;;14.45;8.10;;;;;;;18.20;100.00;101412.19;5037108;28;20110;-77
2022/07/19 02:55:33;;;;;;;17.00;8.25;;;;;;;18.19;100.00;101404.88;5052300;28;20037;-78
2022/07/19 02:57:58;;;;;;;16.95;8.40;;;;;;;18.27;100.00;101412.41;5066081;28;20029;-78
2022/07/19 03:00:24;;;;;;;23.25;8.27;;;;;;;18.20;100.00;101409.41;5032896;28;20091;-77
2022/07/19 03:02:50;;;;;;;15.35;9.07;;;;;;;18.23;100.00;101400.75;5038680;28;20037;-78
2022/07/19 03:05:15;;;;;;;16.05;8.45;;;;;;;18.17;100.00;101413.34;5047611;28;20392;-78
2022/07/19 03:07:41;;;;;;;20.35;9.45;;;;;;;18.12;100.00;101412.09;5034559;28;20037;-78
2022/07/19 03:10:08;;;;;;;13.73;9.43;;;;;;;18.12;100.00;101412.94;5051647;28;20036;-77
2022/07/19 03:12:34;;;;;;;18.80;9.68;;;;;;;18.26;100.00;101410.66;5040124;28;20038;-78
2022/07/19 03:15:00;;;;;;;14.18;8.98;;;;;;;18.28;100.00;101411.38;5042835;28;20049;-79
2022/07/19 03:17:25;;;;;;;26.75;9.60;;;;;;;18.35;100.00;101412.50;5036383;28;20036;-79
2022/07/19 03:19:51;;;;;;;15.48;9.77;;;;;;;18.16;100.00;101411.59;5039479;28;20041;-79
2022/07/19 03:22:16;;;;;;;17.60;10.05;;;;;;;18.09;100.00;101402.19;5043217;28;20503;-79
2022/07/19 03:24:42;;;;;;;22.50;10.75;;;;;;;18.12;100.00;101407.41;5032524;28;20484;-79
2022/07/19 03:27:08;;;;;;;22.73;10.20;;;;;;;18.10;100.00;101403.94;5055177;28;20055;-79
2022/07/19 03:29:34;;;;;;;16.67;10.65;;;;;;;17.89;100.00;101406.09;5031754;28;20034;-79
2022/07/19 03:31:59;;;;;;;20.10;10.90;;;;;;;17.87;100.00;101402.59;5045000;28;20079;-79
2022/07/19 03:34:26;;;;;;;19.92;11.07;;;;;;;17.92;100.00;101408.56;5054827;28;20037;-78
2022/07/19 03:36:51;;;;;;;21.95;10.65;;;;;;;17.91;100.00;101407.69;5046333;28;20064;-78
2022/07/19 03:39:17;;;;;;;21.33;11.18;;;;;;;17.90;100.00;101407.84;5051224;28;20049;-79
2022/07/19 03:41:42;;;;;;;19.50;11.38;;;;;;;17.74;100.00;101409.38;5048929;28;20626;-80
2022/07/19 03:44:08;;;;;;;27.42;11.05;;;;;;;17.91;100.00;101406.84;5015757;28;20048;-79
2022/07/19 03:46:33;;;;;;;26.17;11.30;;;;;;;17.93;100.00;101402.88;5038295;28;20029;-79
2022/07/19 03:48:59;;;;;;;24.45;11.32;;;;;;;17.74;100.00;101394.66;5029157;28;20041;-80
2022/07/19 03:51:25;;;;;;;22.67;10.95;;;;;;;17.75;100.00;101396.41;5019238;28;20057;-79
2022/07/19 03:53:51;;;;;;;29.17;11.18;;;;;;;17.77;100.00;101403.53;5039811;28;20072;-79
2022/07/19 03:56:17;;;;;;;26.20;12.88;;;;;;;17.84;100.00;101392.72;5032976;28;20036;-79
2022/07/19 03:58:44;;;;;;;25.08;12.82;;;;;;;17.92;100.00;101390.06;5019161;28;20033;-77
2022/07/19 04:01:10;;;;;;;26.02;12.70;;;;;;;17.88;100.00;101394.16;5021706;28;20052;-78
2022/07/19 04:03:39;;;;;;;23.58;12.52;;;;;;;17.98;100.00;101394.09;5053544;28;20061;-78
2022/07/19 04:06:06;;;;;;;27.83;12.55;;;;;;;17.89;100.00;101397.78;5037665;28;20048;-77
2022/07/19 04:08:31;;;;;;;39.70;14.60;;;;;;;17.85;100.00;101396.34;5025575;28;20029;-77
2022/07/19 04:10:58;;;;;;;24.67;14.38;;;;;;;18.05;100.00;101389.66;5043127;28;20029;-77
2022/07/19 04:13:24;;;;;;;29.60;14.80;;;;;;;18.04;100.00;101399.00;5048339;28;20025;-77
2022/07/19 04:15:49;;;;;;;28.65;14.50;;;;;;;17.93;100.00;101393.69;5040475;28;20033;-77
2022/07/19 04:18:16;;;;;;;35.47;13.60;;;;;;;18.17;100.00;101396.72;5034977;28;20443;-76
2022/07/19 04:20:41;;;;;;;29.77;13.75;;;;;;;17.92;100.00;101397.47;5051969;28;20104;-77
2022/07/19 04:23:07;;;;;;;27.38;15.50;;;;;;;18.05;100.00;101400.72;5046668;28;20121;-76
2022/07/19 04:25:32;;;;;;;40.20;15.50;;;;;;;17.80;100.00;101405.97;5033480;28;20039;-77
2022/07/19 04:28:02;;;;;;;27.05;14.18;;;;;;;17.94;100.00;101404.63;5019099;28;20073;-77
2022/07/19 04:30:28;;;;;;;30.00;13.38;;;;;;;18.12;100.00;101403.78;5035062;28;20512;-77
2022/07/19 04:32:53;;;;;;;41.03;15.32;;;;;;;18.07;100.00;101407.00;5044751;28;20067;-78
2022/07/19 04:35:19;;;;;;;36.22;14.70;;;;;;;18.32;100.00;101410.03;5042347;28;20052;-77
2022/07/19 04:37:45;;;;;;;41.53;15.18;;;;;;;18.37;100.00;101404.88;5022904;28;20532;-77
2022/07/19 04:40:10;;;;;;;30.48;16.42;;;;;;;18.44;100.00;101408.75;5018942;28;20135;-77
2022/07/19 04:42:36;;;;;;;27.48;15.88;;;;;;;18.40;100.00;101412.88;5045082;28;20480;-76
2022/07/19 04:45:02;;;;;;;32.38;15.25;;;;;;;18.53;100.00;101413.34;5050403;28;20025;-76
2022/07/19 04:47:27;;;;;;;38.95;16.42;;;;;;;18.60;100.00;101412.72;5048741;28;20032;-76
2022/07/19 04:49:53;;;;;;;40.10;14.85;;;;;;;18.66;100.00;101412.03;5036347;28;20112;-76
2022/07/19 04:52:19;;;;;;;31.05;15.38;;;;;;;18.67;100.00;101400.78;5044771;28;20055;-78
2022/07/19 04:54:44;;;;;;;37.47;16.15;;;;;;;18.69;100.00;101400.63;5038946;28;20064;-78
2022/07/19 04:57:10;;;;;;;31.23;16.35;;;;;;;18.86;100.00;101408.09;5046705;28;20100;-78
2022/07/19 04:59:35;;;;;;;29.73;16.20;;;;;;;18.92;100.00;101415.78;5022079;28;20120;-77
2022/07/19 05:02:01;;;;;;;33.22;16.42;;;;;;;19.04;100.00;101409.94;5039181;28;20029;-77
2022/07/19 05:04:26;;;;;;;28.00;16.27;;;;;;;19.08;100.00;101414.13;5054529;28;20043;-77
2022/07/19 05:06:56;;;;;;;28.73;16.13;;;;;;;19.04;100.00;101408.03;5056578;28;20091;-77
2022/07/19 05:09:26;;;;;;;23.88;15.40;;;;;;;19.13;100.00;101402.53;5034538;28;20042;-77
2022/07/19 05:11:53;;;;;;;31.17;16.33;;;;;;;19.18;100.00;101400.13;5048033;28;20120;-78
2022/07/19 05:14:19;;;;;;;33.33;16.83;;;;;;;19.20;100.00;101411.94;5049336;28;20053;-78
2022/07/19 05:16:45;;;;;;;29.92;16.08;;;;;;;19.38;100.00;101401.63;5054844;28;20029;-78
2022/07/19 05:19:11;;;;;;;36.35;15.90;;;;;;;19.62;100.00;101411.09;5047729;28;20048;-78
2022/07/19 05:21:37;;;;;;;23.08;16.02;;;;;;;19.74;100.00;101411.66;5050701;28;20029;-78
2022/07/19 05:24:03;;;;;;;35.42;20.23;;;;;;;19.82;100.00;101406.16;5038682;28;20171;-77
2022/07/19 05:26:30;;;;;;;37.55;22.35;;;;;;;20.01;100.00;101402.25;5045077;28;20365;-77
2022/07/19 05:28:57;;;;;;;32.08;20.70;;;;;;;20.26;100.00;101405.94;5041096;28;20037;-77
2022/07/19 05:31:22;;;;;;;29.17;17.42;;;;;;;20.46;100.00;101405.59;5042652;28;20080;-77
2022/07/19 05:33:48;;;;;;;27.75;17.77;;;;;;;20.69;100.00;101401.13;5044365;28;20029;-76
2022/07/19 05:36:13;;;;;;;28.38;15.50;;;;;;;20.96;100.00;101407.34;5046968;28;20044;-77
2022/07/19 05:38:39;;;;;;;26.02;16.85;;;;;;;21.29;100.00;101410.06;5037489;28;20091;-77
2022/07/19 05:41:06;;;;;;;25.50;17.23;;;;;;;21.56;100.00;101407.91;4988155;28;20065;-77
2022/07/19 05:43:31;;;;;;;31.77;18.25;;;;;;;21.93;100.00;101411.91;5054740;28;20063;-77
2022/07/19 05:45:57;;;;;;;33.83;20.13;;;;;;;22.00;100.00;101412.91;5054731;28;20064;-77
2022/07/19 05:48:23;;;;;;;34.65;21.65;;;;;;;22.28;99.31;101407.66;5046848;28;20119;-77
2022/07/19 05:50:48;;;;;;;33.10;22.45;;;;;;;22.58;95.79;101416.22;5034041;28;20048;-77
2022/07/19 05:53:17;;;;;;;41.15;21.98;;;;;;;22.57;95.82;101417.25;5035397;28;20381;-77
2022/07/19 05:55:43;;;;;;;25.83;19.77;;;;;;;23.17;92.83;101420.22;5017619;28;20133;-77
2022/07/19 05:58:08;;;;;;;42.53;21.92;;;;;;;23.29;92.38;101419.56;5033912;28;20053;-77
2022/07/19 06:00:34;;;;;;;30.63;18.92;;;;;;;23.26;95.63;101419.94;5016389;28;20079;-77
2022/07/19 06:02:59;;;;;;;31.73;21.08;;;;;;;23.92;94.73;101421.09;5026464;28;20038;-76
2022/07/19 06:05:25;;;;;;;24.75;18.92;;;;;;;24.03;92.36;101417.78;5046291;28;20045;-77
2022/07/19 06:07:51;;;;;;;23.38;13.90;;;;;;;23.94;88.42;101418.97;5035968;28;20569;-77
2022/07/19 06:10:16;;;;;;;29.75;13.80;;;;;;;23.93;89.71;101425.63;5037229;28;20516;-77
2022/07/19 06:12:43;;;;;;;22.52;10.50;;;;;;;24.29;85.57;101424.78;5035385;28;20033;-77
2022/07/19 06:15:09;;;;;;;22.92;9.15;;;;;;;24.52;82.72;101421.78;5024741;28;20064;-77
2022/07/19 06:17:35;;;;;;;18.70;9.10;;;;;;;24.67;81.60;101431.00;5007335;28;20029;-77
2022/07/19 06:20:01;;;;;;;14.10;8.65;;;;;;;24.84;80.43;101426.00;5031629;28;20079;-77
2022/07/19 06:22:30;;;;;;;13.93;8.43;;;;;;;24.74;80.80;101431.06;5046117;28;20060;-77
2022/07/19 06:24:55;;;;;;;12.90;7.57;;;;;;;24.96;79.64;101429.13;5035571;28;20030;-77
2022/07/19 06:27:21;;;;;;;23.90;7.63;;;;;;;24.89;77.39;101419.75;5052299;28;20484;-77
2022/07/19 06:29:46;;;;;;;14.32;6.95;;;;;;;25.00;76.43;101424.81;5044017;28;20063;-76
2022/07/19 06:32:12;;;;;;;18.98;6.65;;;;;;;25.55;72.45;101425.03;5033801;28;20042;-77
2022/07/19 06:34:37;;;;;;;16.85;6.38;;;;;;;25.75;71.51;101422.31;5034978;28;20047;-77
2022/07/19 06:37:02;;;;;;;10.90;6.18;;;;;;;25.64;73.12;101420.97;5044169;28;20041;-77
2022/07/19 06:39:28;;;;;;;16.98;6.43;;;;;;;26.38;71.61;101426.88;5006354;28;20137;-77
2022/07/19 06:41:54;;;;;;;19.00;5.82;;;;;;;27.10;67.29;101419.59;5048299;28;20559;-77
2022/07/19 06:44:19;;;;;;;15.45;5.63;;;;;;;26.99;65.67;101423.09;5043547;28;20443;-77
2022/07/19 06:46:45;;;;;;;15.07;5.60;;;;;;;26.71;67.73;101417.66;5041116;28;20116;-77
2022/07/19 06:49:10;;;;;;;14.40;6.30;;;;;;;26.80;67.91;101413.56;5040367;28;20030;-77
2022/07/19 06:51:36;;;;;;;18.02;7.40;;;;;;;27.39;67.38;101417.44;5008980;28;20038;-77
2022/07/19 06:54:01;;;;;;;24.50;6.72;;;;;;;27.34;68.58;101417.25;5046034;28;20040;-76
2022/07/19 06:56:27;;;;;;;13.68;6.30;;;;;;;27.18;67.39;101410.09;5035012;28;20120;-76
2022/07/19 06:58:52;;;;;;;21.13;7.20;;;;;;;27.18;66.71;101415.72;5035712;28;20026;-76
2022/07/19 07:01:19;;;;;;;18.55;6.53;;;;;;;27.20;67.51;101412.69;5033253;28;20029;-77
2022/07/19 07:03:45;;;;;;;23.08;6.30;;;;;;;27.54;66.04;101413.53;5044628;28;20068;-77
2022/07/19 07:06:11;;;;;;;23.30;6.40;;;;;;;27.90;66.01;101423.34;5035767;28;20041;-77
2022/07/19 07:08:36;;;;;;;27.15;6.32;;;;;;;27.82;66.92;101416.88;5031047;28;20463;-75
2022/07/19 07:11:02;;;;;;;14.68;6.15;;;;;;;28.51;63.94;101419.13;5031353;28;20033;-75
2022/07/19 07:13:28;;;;;;;12.30;5.75;;;;;;;28.06;66.71;101420.06;5044956;28;20037;-75
2022/07/19 07:15:53;;;;;;;19.45;6.18;;;;;;;28.53;64.39;101419.78;5030664;28;20433;-77
2022/07/19 07:18:19;;;;;;;14.15;5.30;;;;;;;28.83;63.18;101414.38;5037368;28;20051;-76
2022/07/19 07:20:44;;;;;;;16.60;5.50;;;;;;;28.99;63.25;101420.53;5052076;28;20029;-76
2022/07/19 07:23:10;;;;;;;17.13;5.28;;;;;;;28.75;65.27;101409.88;5019678;28;20389;-76
2022/07/19 07:25:35;;;;;;;15.55;5.68;;;;;;;29.69;61.74;101412.66;5028091;28;20442;-76
2022/07/19 07:28:01;;;;;;;15.73;5.15;;;;;;;29.36;61.07;101407.41;5047722;28;20036;-77
2022/07/19 07:30:26;;;;;;;13.63;5.43;;;;;;;29.93;60.65;101412.00;5051731;28;20453;-76
2022/07/19 07:32:51;;;;;;;14.85;4.88;;;;;;;29.34;60.68;101418.06;5051745;28;20460;-76
2022/07/19 07:35:17;;;;;;;11.35;5.03;;;;;;;30.12;58.69;101412.81;5039944;28;20087;-78
2022/07/19 07:37:42;;;;;;;22.33;5.13;;;;;;;29.65;58.19;101417.06;5014371;28;20481;-76
2022/07/19 07:40:09;;;;;;;14.63;5.20;;;;;;;29.95;58.26;101413.47;5032905;28;20053;-75
2022/07/19 07:42:34;;;;;;;17.45;4.90;;;;;;;29.84;59.48;101409.50;5031750;28;20061;-75
2022/07/19 07:45:00;;;;;;;14.07;6.30;;;;;;;29.60;61.90;101407.56;5031579;28;20489;-76
2022/07/19 07:47:26;;;;;;;15.48;5.72;;;;;;;30.44;59.20;101402.16;5037976;28;20048;-76
2022/07/19 07:49:51;;;;;;;23.77;6.05;;;;;;;30.55;58.34;101412.66;5031324;28;20037;-76
2022/07/19 07:52:18;;;;;;;16.67;6.95;;;;;;;31.35;55.87;101404.75;5031587;28;20385;-76
2022/07/19 07:54:44;;;;;;;21.13;8.48;;;;;;;30.46;58.69;101407.56;5031067;28;20037;-76
2022/07/19 07:57:09;;;;;;;22.42;9.32;;;;;;;30.71;58.38;101404.56;5031615;28;20109;-76
2022/07/19 07:59:35;;;;;;;24.80;9.18;;;;;;;30.98;56.32;101404.16;5017602;28;20040;-75
2022/07/19 08:02:00;;;;;;;21.83;10.60;;;;;;;30.60;56.29;101394.97;4998640;28;20041;-76
2022/07/19 08:04:27;;;;;;;25.83;9.63;;;;;;;30.49;57.14;101398.63;5030612;28;20033;-75
2022/07/19 08:06:53;;;;;;;22.50;8.63;;;;;;;31.07;55.58;101392.19;5040288;28;20037;-76
2022/07/19 08:09:19;;;;;;;16.48;8.90;;;;;;;30.91;56.84;101390.06;5051469;28;20029;-76
2022/07/19 08:11:44;;;;;;;17.75;9.85;;;;;;;31.69;55.87;101382.34;5045070;28;20424;-76
2022/07/19 08:14:10;;;;;;;18.45;10.18;;;;;;;31.32;56.27;101388.28;5039972;28;20393;-75
2022/07/19 08:16:35;;;;;;;22.25;9.30;;;;;;;31.99;53.74;101392.56;5044583;28;20141;-75
2022/07/19 08:19:01;;;;;;;22.10;9.52;;;;;;;32.50;51.44;101395.56;5030904;28;20045;-76
2022/07/19 08:21:26;;;;;;;19.33;9.70;;;;;;;33.27;47.19;101400.63;5032180;28;20026;-76
2022/07/19 08:23:53;;;;;;;19.70;9.68;;;;;;;32.57;51.87;101396.28;5023894;28;20400;-76
2022/07/19 08:26:20;;;;;;;29.52;7.05;;;;;;;32.85;49.85;101392.56;5040445;28;20041;-76
2022/07/19 08:28:46;;;;;;;23.55;10.00;;;;;;;32.08;52.78;101387.44;5047946;28;20038;-77
2022/07/19 08:31:12;;;;;;;19.92;7.63;;;;;;;32.54;51.27;101391.97;5018216;28;20537;-77
2022/07/19 08:33:39;;;;;;;19.77;8.45;;;;;;;32.71;50.88;101385.50;5009798;28;20045;-77
2022/07/19 08:36:05;;;;;;;23.20;6.95;;;;;;;32.67;49.67;101390.81;5035341;28;20160;-77
2022/07/19 08:38:30;;;;;;;19.08;5.93;;;;;;;33.23;49.32;101396.59;5034882;28;20069;-77
2022/07/19 08:40:56;;;;;;;16.40;6.43;;;;;;;33.41;47.76;101383.22;5026807;28;20315;-77
2022/07/19 08:43:22;;;;;;;29.67;6.38;;;;;;;33.63;48.23;101386.06;5032804;28;20045;-77
2022/07/19 08:45:49;;;;;;;17.65;6.05;;;;;;;33.33;48.92;101382.53;5020720;28;20037;-77
2022/07/19 08:48:15;;;;;;;16.50;6.55;;;;;;;33.11;49.70;101376.81;5023456;28;20041;-76
2022/07/19 08:50:41;;;;;;;30.40;5.32;;;;;;;33.51;47.38;101380.53;5047134;28;20036;-75
2022/07/19 08:53:06;;;;;;;33.58;4.63;;;;;;;33.34;43.89;101378.59;5035150;28;20033;-77
2022/07/19 08:55:32;;;;;;;24.13;3.80;;;;;;;34.02;42.55;101381.19;5028384;28;20041;-76
2022/07/19 08:57:58;;;;;;;12.13;3.40;;;;;;;33.41;43.73;101371.88;5039560;28;20041;-78
2022/07/19 09:00:28;;;;;;;15.75;3.67;;;;;;;33.73;44.23;101371.19;5024649;28;20029;-77
2022/07/19 09:03:01;;;;;;;21.17;3.60;;;;;;;33.51;43.61;101377.69;5043016;28;20041;-76
2022/07/19 09:05:28;;;;;;;22.00;3.33;;;;;;;33.38;43.98;101373.25;5034109;28;20038;-76
2022/07/19 09:08:07;;;;;;;11.80;3.20;;;;;;;33.76;43.08;101371.50;5045226;28;20044;-77
2022/07/19 09:10:35;;;;;;;11.23;3.10;;;;;;;34.14;41.59;101371.66;5036262;28;20030;-77
2022/07/19 09:13:08;;;;;;;12.57;3.00;;;;;;;34.57;42.00;101369.88;5037219;28;20477;-77
2022/07/19 09:15:39;;;;;;;12.20;3.00;;;;;;;34.75;39.88;101375.19;5035074;28;20044;-75
2022/07/19 09:18:21;;;;;;;11.70;2.97;;;;;;;34.95;40.17;101362.25;5041832;28;20028;-75
2022/07/19 09:20:50;;;;;;;9.35;3.15;;;;;;;34.44;40.20;101365.47;5055618;28;20082;-76
2022/07/19 09:23:16;;;;;;;7.35;2.97;;;;;;;34.51;40.21;101363.25;5044922;28;20045;-76
2022/07/19 09:25:46;;;;;;;15.45;3.45;;;;;;;35.26;36.28;101359.66;5036720;28;20052;-75
2022/07/19 09:28:12;;;;;;;16.00;3.33;;;;;;;34.13;36.98;101358.59;5050190;28;20511;-76
2022/07/19 09:30:46;;;;;;;10.07;2.88;;;;;;;34.40;37.42;101359.47;5051852;28;20029;-75
2022/07/19 09:33:17;;;;;;;15.88;3.45;;;;;;;34.58;36.98;101360.19;5039591;28;20396;-75
2022/07/19 09:35:50;;;;;;;16.27;3.45;;;;;;;35.27;36.26;101359.38;5051853;28;20090;-76
2022/07/19 09:38:22;;;;;;;11.95;2.97;;;;;;;34.73;37.41;101350.97;5051671;28;20043;-75
2022/07/19 09:40:49;;;;;;;12.93;2.85;;;;;;;35.36;36.94;101358.84;5055453;28;20061;-76
2022/07/19 09:43:16;;;;;;;17.70;3.28;;;;;;;34.77;38.25;101350.16;5047702;28;20116;-75
2022/07/19 09:45:42;;;;;;;12.90;3.13;;;;;;;35.05;36.24;101350.94;5037407;28;20029;-75
2022/07/19 09:48:08;;;;;;;11.05;2.90;;;;;;;35.63;35.27;101347.28;5030319;28;20580;-74
2022/07/19 09:50:34;;;;;;;16.88;3.30;;;;;;;36.00;33.97;101352.88;5034302;28;20124;-76
2022/07/19 09:53:04;;;;;;;11.70;2.92;;;;;;;35.18;35.04;101345.91;5039236;28;20507;-76
2022/07/19 09:55:31;;;;;;;12.68;2.85;;;;;;;35.62;35.25;101337.03;5051388;28;20029;-76
2022/07/19 09:57:58;;;;;;;9.07;3.05;;;;;;;35.99;34.18;101347.44;5019639;28;20112;-75
2022/07/19 10:00:25;;;;;;;18.38;3.00;;;;;;;35.58;34.01;101339.56;5036056;28;20399;-75
2022/07/19 10:02:59;;;;;;;10.05;2.95;;;;;;;35.22;34.48;101339.34;5035191;28;20025;-75
2022/07/19 10:05:27;;;;;;;15.02;3.00;;;;;;;35.39;35.83;101344.91;5034728;28;20040;-75
2022/07/19 10:07:53;;;;;;;10.85;3.08;;;;;;;35.34;34.17;101334.34;5051309;28;20028;-75
2022/07/19 10:10:21;;;;;;;17.27;2.72;;;;;;;35.36;33.26;101341.75;5046376;28;20037;-75
2022/07/19 10:12:48;;;;;;;13.75;3.10;;;;;;;35.77;33.03;101342.81;5044960;28;20043;-75
2022/07/19 10:15:16;;;;;;;16.00;3.20;;;;;;;35.63;31.81;101333.03;5034858;28;20388;-74
2022/07/19 10:17:58;;;;;;;7.75;2.63;;;;;;;36.01;32.39;101340.34;5032882;28;20484;-75
2022/07/19 10:20:26;;;;;;;8.02;3.00;;;;;;;36.34;31.37;101335.28;5048293;28;20029;-75
2022/07/19 10:22:52;;;;;;;8.32;2.92;;;;;;;35.85;30.29;101339.44;5047132;28;20495;-75
2022/07/19 10:25:18;;;;;;;10.02;2.92;;;;;;;35.71;30.24;101335.34;5046335;28;20056;-75
2022/07/19 10:27:54;;;;;;;12.07;2.55;;;;;;;35.81;30.87;101334.56;5026619;28;20037;-75
2022/07/19 10:30:23;;;;;;;18.45;3.25;;;;;;;35.74;31.00;101333.97;5045279;28;20029;-75
2022/07/19 10:32:50;;;;;;;12.52;3.10;;;;;;;36.03;29.98;101338.06;5046652;28;20111;-75
2022/07/19 10:35:22;;;;;;;13.25;3.60;;;;;;;36.08;30.61;101334.38;5036380;28;20119;-76
2022/07/19 10:38:00;;;;;;;11.98;3.40;;;;;;;35.98;30.28;101334.34;5036828;28;20045;-76
2022/07/19 10:40:50;;;;;;;11.90;2.88;;;;;;;36.48;29.53;101327.00;5033352;28;20128;-77
2022/07/19 10:43:18;;;;;;;18.73;3.20;;;;;;;36.21;29.55;101322.41;5040262;28;20040;-76
2022/07/19 10:46:04;;;;;;;16.77;3.22;;;;;;;36.34;29.39;101320.16;5034941;28;20041;-76
2022/07/19 10:48:36;;;;;;;7.30;2.47;;;;;;;36.61;29.77;101314.19;5052450;28;20554;-75
2022/07/19 10:51:02;;;;;;;18.33;2.60;;;;;;;35.94;29.06;101314.06;5017655;28;20380;-76
2022/07/19 10:53:40;;;;;;;7.50;2.35;;;;;;;36.49;29.47;101308.75;5035927;28;20066;-75
2022/07/19 10:56:15;;;;;;;9.93;2.72;;;;;;;36.87;29.12;101308.47;5032744;28;20099;-75
2022/07/19 10:58:48;;;;;;;13.05;2.92;;;;;;;36.91;28.56;101306.75;5049133;28;20029;-75
2022/07/19 11:01:19;;;;;;;11.40;2.55;;;;;;;37.29;28.33;101293.84;5033519;28;20060;-76
2022/07/19 11:03:45;;;;;;;4.80;2.50;;;;;;;36.74;27.40;101299.34;5039229;28;20461;-74
2022/07/19 11:06:26;;;;;;;16.25;2.80;;;;;;;36.34;29.36;101300.19;5034161;28;20035;-74
2022/07/19 11:08:57;;;;;;;14.63;3.00;;;;;;;36.11;28.95;101298.72;5033618;28;20136;-75